Time;durP1;ratioP1;P1;durP2;ratioP2;P2;SDS_P1;SDS_P2;PMS_P1;PMS_P2;Temp;Humidity;BMP_temperature;BMP_pressure;BME280_temperature;BME280_humidity;BME280_pressure;Samples;Min_cycle;Max_cycle;Signal;HPM_P1;HPM_P2
2023/01/08 00:01:40;;;;;;;5.85;2.90;;;;;;;8.11;100.00;100176.75;4899992;29;20053;-74
2023/01/08 00:04:05;;;;;;;4.72;2.83;;;;;;;8.14;100.00;100173.75;4915224;29;20031;-73
2023/01/08 00:06:31;;;;;;;5.22;2.80;;;;;;;8.19;100.00;100157.09;4911094;29;20024;-73
2023/01/08 00:08:56;;;;;;;4.75;3.28;;;;;;;8.27;100.00;100171.44;4916334;29;20028;-75
2023/01/08 00:11:21;;;;;;;3.80;2.65;;;;;;;8.28;100.00;100159.69;4916071;29;20472;-74
2023/01/08 00:13:47;;;;;;;5.05;2.80;;;;;;;8.23;100.00;100159.31;4916916;29;20039;-74
2023/01/08 00:16:15;;;;;;;12.50;2.90;;;;;;;8.20;100.00;100153.38;4900346;29;20039;-74
2023/01/08 00:18:41;;;;;;;3.90;2.80;;;;;;;8.27;100.00;100139.09;4918946;29;20114;-74
2023/01/08 00:21:07;;;;;;;4.75;2.78;;;;;;;8.37;100.00;100145.25;4918348;29;20041;-74
2023/01/08 00:23:33;;;;;;;5.20;3.15;;;;;;;8.52;100.00;100152.72;4934688;29;20036;-74
2023/01/08 00:26:04;;;;;;;4.53;2.88;;;;;;;8.38;100.00;100152.31;4935669;29;20111;-74
2023/01/08 00:28:30;;;;;;;6.20;3.60;;;;;;;8.32;100.00;100158.34;4918742;29;20032;-74
2023/01/08 00:30:56;;;;;;;6.05;3.05;;;;;;;8.36;100.00;100148.13;4935418;29;20083;-74
2023/01/08 00:33:21;;;;;;;5.00;3.45;;;;;;;8.31;100.00;100145.84;4918141;29;20039;-74
2023/01/08 00:35:46;;;;;;;6.53;3.17;;;;;;;8.31;100.00;100143.16;4918492;29;20126;-74
2023/01/08 00:38:12;;;;;;;5.88;3.20;;;;;;;8.45;100.00;100146.28;4934330;29;20023;-74
2023/01/08 00:40:39;;;;;;;5.55;3.42;;;;;;;8.49;100.00;100139.56;4917676;29;20410;-74
2023/01/08 00:43:05;;;;;;;4.53;3.28;;;;;;;8.55;100.00;100130.81;4918449;29;20067;-74
2023/01/08 00:45:30;;;;;;;5.80;3.40;;;;;;;8.50;100.00;100122.38;4926184;29;20020;-74
2023/01/08 00:47:55;;;;;;;5.60;3.30;;;;;;;8.48;100.00;100119.00;4918363;29;20062;-74
2023/01/08 00:50:21;;;;;;;5.68;3.10;;;;;;;8.56;100.00;100121.72;4917596;29;20027;-74
2023/01/08 00:52:46;;;;;;;5.95;3.92;;;;;;;8.60;100.00;100105.00;4917782;29;20106;-74
2023/01/08 00:55:11;;;;;;;5.22;3.30;;;;;;;8.62;100.00;100104.88;4918286;29;20032;-74
2023/01/08 00:57:38;;;;;;;4.85;3.40;;;;;;;8.62;100.00;100096.78;4935089;29;20027;-74
2023/01/08 01:00:06;;;;;;;7.78;3.30;;;;;;;8.54;100.00;100097.59;4935389;29;20031;-74
2023/01/08 01:02:33;;;;;;;7.57;3.83;;;;;;;8.74;100.00;100092.75;4917763;29;20114;-74
2023/01/08 01:04:58;;;;;;;6.40;2.65;;;;;;;8.59;100.00;100089.00;4918087;29;20055;-74
2023/01/08 01:07:24;;;;;;;4.38;2.92;;;;;;;8.69;100.00;100100.50;4917907;29;20031;-74
2023/01/08 01:09:49;;;;;;;12.07;3.38;;;;;;;8.75;100.00;100116.03;4933367;29;20026;-74
2023/01/08 01:12:15;;;;;;;6.03;3.35;;;;;;;8.63;100.00;100128.16;4919214;29;20038;-74
2023/01/08 01:14:40;;;;;;;7.95;3.50;;;;;;;8.67;100.00;100121.41;4945608;28;20031;-74
2023/01/08 01:17:06;;;;;;;12.13;5.30;;;;;;;8.76;100.00;100112.31;4913982;29;20032;-74
2023/01/08 01:19:31;;;;;;;6.43;3.47;;;;;;;8.75;100.00;100126.84;4915851;29;20028;-74
2023/01/08 01:21:56;;;;;;;7.30;4.18;;;;;;;8.83;100.00;100117.91;4915015;29;20036;-74
2023/01/08 01:24:23;;;;;;;6.32;3.08;;;;;;;8.82;100.00;100117.06;4921830;29;20059;-74
2023/01/08 01:26:50;;;;;;;4.70;3.17;;;;;;;8.80;100.00;100113.69;4913891;29;20043;-74
2023/01/08 01:29:15;;;;;;;6.05;3.22;;;;;;;8.81;100.00;100126.19;4914322;29;20024;-74
2023/01/08 01:31:41;;;;;;;5.53;3.25;;;;;;;8.83;100.00;100124.16;4914041;29;20102;-74
2023/01/08 01:34:06;;;;;;;6.00;3.33;;;;;;;8.91;100.00;100116.06;4929807;29;20119;-73
2023/01/08 01:36:32;;;;;;;4.55;3.00;;;;;;;8.87;100.00;100120.13;4914703;29;20064;-74
2023/01/08 01:38:57;;;;;;;7.25;3.45;;;;;;;8.82;100.00;100114.38;4928418;29;20032;-74
2023/01/08 01:41:32;;;;;;;5.47;2.90;;;;;;;9.00;100.00;100107.97;4914674;29;20406;-74
2023/01/08 01:44:34;;;;;;;4.88;2.83;;;;;;;8.83;100.00;100105.25;4937819;29;20545;-73
2023/01/08 01:47:10;;;;;;;6.80;3.30;;;;;;;8.93;100.00;100103.25;4913879;29;20032;-74
2023/01/08 01:49:37;;;;;;;5.65;3.20;;;;;;;8.91;100.00;100110.66;4929851;29;20039;-74
2023/01/08 01:52:06;;;;;;;5.50;2.92;;;;;;;8.85;100.00;100108.63;4913407;29;20075;-73
2023/01/08 01:54:34;;;;;;;5.70;3.05;;;;;;;8.86;100.00;100107.59;4913932;29;20034;-72
2023/01/08 01:57:00;;;;;;;7.32;3.33;;;;;;;8.95;100.00;100112.03;4913823;29;20055;-73
2023/01/08 01:59:25;;;;;;;5.15;3.03;;;;;;;8.97;100.00;100104.59;4913533;29;20024;-73
2023/01/08 02:01:51;;;;;;;5.38;3.38;;;;;;;9.03;100.00;100096.84;4914485;29;20144;-73
2023/01/08 02:04:16;;;;;;;4.68;3.22;;;;;;;9.03;100.00;100096.84;4939819;29;20517;-73
2023/01/08 02:07:24;;;;;;;5.75;3.45;;;;;;;8.93;100.00;100097.84;4932784;28;20028;-74
2023/01/08 02:10:00;;;;;;;4.72;3.10;;;;;;;9.08;100.00;100091.78;4897765;29;20063;-74
2023/01/08 02:12:47;;;;;;;3.42;2.63;;;;;;;9.00;100.00;100094.47;4894784;29;20033;-74
2023/01/08 02:15:25;;;;;;;4.82;3.22;;;;;;;8.90;100.00;100084.69;4909395;29;20066;-74
2023/01/08 02:18:10;;;;;;;10.07;3.20;;;;;;;9.04;100.00;100083.16;4946477;28;20115;-73
2023/01/08 02:20:53;;;;;;;5.43;3.53;;;;;;;8.93;100.00;100087.06;4913634;29;20028;-74
2023/01/08 02:23:37;;;;;;;7.80;3.35;;;;;;;9.05;100.00;100078.63;4929941;29;20107;-74
2023/01/08 02:26:23;;;;;;;9.38;3.42;;;;;;;9.03;100.00;100086.06;4914588;29;20024;-74
2023/01/08 02:28:56;;;;;;;3.97;2.90;;;;;;;8.98;100.00;100079.28;4913655;29;20056;-75
2023/01/08 02:31:24;;;;;;;7.05;3.25;;;;;;;9.10;100.00;100070.84;4913645;29;20047;-74
2023/01/08 02:33:50;;;;;;;7.18;4.22;;;;;;;8.95;100.00;100079.63;4929368;29;20051;-73
2023/01/08 02:36:24;;;;;;;5.22;2.95;;;;;;;9.04;100.00;100068.84;4927895;29;20027;-74
2023/01/08 02:39:27;;;;;;;5.45;3.33;;;;;;;9.07;100.00;100065.81;4929072;29;20032;-75
2023/01/08 02:42:23;;;;;;;5.50;3.30;;;;;;;9.13;100.00;100059.75;4928800;29;20412;-75
2023/01/08 02:45:04;;;;;;;4.13;3.10;;;;;;;9.04;100.00;100039.97;4930683;29;20090;-75
2023/01/08 02:47:53;;;;;;;4.18;2.90;;;;;;;9.02;100.00;100038.47;4933783;29;20039;-75
2023/01/08 02:50:45;;;;;;;5.78;2.90;;;;;;;9.01;100.00;100034.09;4913252;29;20028;-75
2023/01/08 02:53:42;;;;;;;;;;;;;;;;;;;;;
2023/01/08 02:56:18;;;;;;;5.30;3.20;;;;;;;9.10;100.00;100033.91;4914722;29;20036;-75
2023/01/08 02:58:54;;;;;;;5.20;2.90;;;;;;;8.95;100.00;100033.75;4914615;29;20038;-74
2023/01/08 03:01:28;;;;;;;5.90;2.72;;;;;;;9.05;100.00;100043.50;4913364;29;20032;-76
2023/01/08 03:04:05;;;;;;;3.92;2.55;;;;;;;8.95;100.00;100041.00;4913378;29;20032;-74
2023/01/08 03:06:33;;;;;;;5.38;3.00;;;;;;;8.96;100.00;100054.31;4912811;29;20016;-76
2023/01/08 03:09:08;;;;;;;5.72;3.33;;;;;;;9.04;100.00;100055.31;4913011;29;20051;-74
2023/01/08 03:11:53;;;;;;;8.50;2.70;;;;;;;9.03;100.00;100054.50;4912440;29;20400;-74
2023/01/08 03:14:35;;;;;;;5.63;3.60;;;;;;;8.98;100.00;100054.97;4918731;29;20546;-74
2023/01/08 03:17:07;;;;;;;5.97;2.63;;;;;;;9.02;100.00;100073.56;4939114;28;20079;-74
2023/01/08 03:19:47;;;;;;;6.55;3.15;;;;;;;9.16;100.00;100059.38;4951019;29;20031;-74
2023/01/08 03:22:15;;;;;;;6.85;3.88;;;;;;;9.11;100.00;100056.34;4915169;29;20016;-73
2023/01/08 03:24:42;;;;;;;4.70;2.88;;;;;;;9.15;100.00;100052.31;4933283;29;20065;-73
2023/01/08 03:27:11;;;;;;;5.40;3.20;;;;;;;9.28;100.00;100047.22;4933235;29;20035;-74
2023/01/08 03:29:39;;;;;;;5.40;2.75;;;;;;;9.16;100.00;100038.63;4915424;29;20019;-73
2023/01/08 03:32:10;;;;;;;8.23;2.92;;;;;;;9.15;100.00;100057.69;4932726;29;20035;-73
2023/01/08 03:34:39;;;;;;;4.65;2.58;;;;;;;9.22;100.00;100053.31;4916429;29;20087;-73
2023/01/08 03:37:06;;;;;;;4.95;3.35;;;;;;;9.23;100.00;100052.28;4932116;29;20039;-73
2023/01/08 03:39:39;;;;;;;4.15;2.90;;;;;;;9.09;100.00;100044.88;4919340;29;20027;-73
2023/01/08 03:42:13;;;;;;;6.88;3.10;;;;;;;9.03;100.00;100037.44;4919065;29;20071;-73
2023/01/08 03:44:38;;;;;;;5.90;3.08;;;;;;;9.06;100.00;100034.41;4916256;29;20067;-73
2023/01/08 03:47:05;;;;;;;9.82;2.85;;;;;;;9.12;100.00;100041.81;4919089;29;20087;-73
2023/01/08 03:49:31;;;;;;;4.68;2.88;;;;;;;8.96;100.00;100042.69;4919368;29;20027;-73
2023/01/08 03:51:56;;;;;;;4.57;3.17;;;;;;;8.92;100.00;100052.94;4919045;29;20039;-74
2023/01/08 03:54:30;;;;;;;6.97;2.85;;;;;;;8.97;100.00;100034.41;4951059;29;20032;-74
2023/01/08 03:56:56;;;;;;;4.80;3.15;;;;;;;9.08;100.00;100040.50;4936026;29;20092;-74
2023/01/08 03:59:22;;;;;;;5.68;3.35;;;;;;;9.05;100.00;100043.50;4919052;29;20071;-74
2023/01/08 04:01:47;;;;;;;3.95;3.00;;;;;;;8.95;100.00;100036.44;4919299;29;20103;-73
2023/01/08 04:04:12;;;;;;;8.82;3.10;;;;;;;9.03;100.00;100038.28;4934873;29;20051;-74
2023/01/08 04:06:40;;;;;;;5.30;2.92;;;;;;;9.05;100.00;100043.50;4931050;29;20109;-74
2023/01/08 04:09:06;;;;;;;3.08;2.70;;;;;;;9.05;100.00;100043.50;4935556;29;20039;-73
2023/01/08 04:11:31;;;;;;;4.63;3.33;;;;;;;9.11;100.00;100040.13;4918675;29;20027;-73
2023/01/08 04:13:57;;;;;;;6.03;3.63;;;;;;;9.15;100.00;100042.34;4918874;29;20087;-74
2023/01/08 04:16:22;;;;;;;5.47;3.65;;;;;;;9.03;100.00;100032.03;4918345;29;20054;-73
2023/01/08 04:18:48;;;;;;;4.70;3.08;;;;;;;9.06;100.00;100034.41;4950722;28;20135;-76
2023/01/08 04:21:13;;;;;;;6.53;3.15;;;;;;;9.10;100.00;100027.66;4918343;29;20035;-74
2023/01/08 04:23:38;;;;;;;5.00;3.05;;;;;;;8.93;100.00;100016.00;4934824;29;20462;-74
2023/01/08 04:26:08;;;;;;;3.08;2.70;;;;;;;9.09;100.00;100015.16;4935490;29;20436;-74
2023/01/08 04:28:34;;;;;;;6.82;2.97;;;;;;;9.16;100.00;100016.19;4935291;29;20031;-74
2023/01/08 04:31:03;;;;;;;5.28;3.15;;;;;;;9.12;100.00;100026.47;4934944;29;20097;-74
2023/01/08 04:33:28;;;;;;;3.78;2.90;;;;;;;9.14;100.00;100018.22;4918389;29;20027;-74
2023/01/08 04:35:54;;;;;;;5.22;3.17;;;;;;;9.30;100.00;100023.59;4918179;29;20118;-74
2023/01/08 04:38:19;;;;;;;4.28;2.88;;;;;;;9.31;100.00;100006.34;4935335;29;20055;-74
2023/01/08 04:40:45;;;;;;;4.95;2.97;;;;;;;9.19;100.00;100010.41;4917946;29;20229;-73
2023/01/08 04:43:10;;;;;;;7.40;3.55;;;;;;;9.15;100.00;100003.69;4918410;29;20035;-74
2023/01/08 04:45:35;;;;;;;4.95;2.45;;;;;;;9.27;100.00;100007.72;4933349;29;20067;-74
2023/01/08 04:48:01;;;;;;;6.70;2.60;;;;;;;9.25;100.00;99993.53;4935979;29;20040;-73
2023/01/08 04:50:26;;;;;;;5.63;2.83;;;;;;;9.37;100.00;99991.31;4934272;29;20028;-73
2023/01/08 04:52:52;;;;;;;7.15;3.58;;;;;;;9.22;100.00;99983.09;4918185;29;20031;-74
2023/01/08 04:55:18;;;;;;;6.43;3.00;;;;;;;9.21;100.00;99981.41;4917816;29;20023;-74
2023/01/08 04:57:43;;;;;;;3.47;2.80;;;;;;;9.25;100.00;99985.44;4935077;29;20102;-73
2023/01/08 05:00:09;;;;;;;4.70;3.22;;;;;;;9.32;100.00;99975.63;4917911;29;20051;-73
2023/01/08 05:02:34;;;;;;;5.70;3.05;;;;;;;9.33;100.00;99980.03;4917828;29;20434;-74
2023/01/08 05:05:00;;;;;;;6.70;3.30;;;;;;;9.22;100.00;99961.47;4917735;29;20023;-74
2023/01/08 05:07:25;;;;;;;4.20;2.88;;;;;;;9.11;100.00;99967.22;4917684;29;20051;-74
2023/01/08 05:09:51;;;;;;;5.68;3.55;;;;;;;9.40;100.00;99970.22;4934996;29;20036;-74
2023/01/08 05:12:16;;;;;;;6.18;3.50;;;;;;;9.20;100.00;99955.41;4917961;29;20056;-74
2023/01/08 05:14:42;;;;;;;4.22;3.00;;;;;;;9.32;100.00;99962.13;4934517;29;20031;-74
2023/01/08 05:17:07;;;;;;;6.07;3.08;;;;;;;9.30;100.00;99974.97;4910102;29;20054;-74
2023/01/08 05:19:32;;;;;;;4.53;2.88;;;;;;;9.18;100.00;99960.97;4916140;29;20032;-73
2023/01/08 05:21:58;;;;;;;5.53;3.10;;;;;;;9.30;100.00;99961.47;4915025;29;20042;-74
2023/01/08 05:24:23;;;;;;;5.43;3.35;;;;;;;9.33;100.00;99968.38;4915510;29;20039;-74
2023/01/08 05:26:48;;;;;;;4.20;2.90;;;;;;;9.30;100.00;99964.16;4914998;29;20111;-73
2023/01/08 05:29:14;;;;;;;6.47;3.00;;;;;;;9.43;100.00;99964.47;4899031;29;20476;-74
2023/01/08 05:31:40;;;;;;;5.10;3.03;;;;;;;9.45;100.00;99970.56;4914110;29;20024;-74
2023/01/08 05:34:05;;;;;;;9.13;3.30;;;;;;;9.45;100.00;99967.84;4914268;29;20035;-73
2023/01/08 05:36:31;;;;;;;6.55;3.00;;;;;;;9.52;100.00;99968.84;4914589;29;20036;-74
2023/01/08 05:38:56;;;;;;;6.85;2.88;;;;;;;9.62;100.00;99967.78;4898499;29;20032;-74
2023/01/08 05:41:21;;;;;;;4.82;3.03;;;;;;;9.40;100.00;99964.81;4914606;29;20062;-74
2023/01/08 05:43:46;;;;;;;4.68;2.63;;;;;;;9.50;100.00;99965.44;4898334;29;20032;-73
2023/01/08 05:46:12;;;;;;;8.90;3.38;;;;;;;9.22;100.00;99961.47;4898131;29;20103;-74
2023/01/08 05:48:37;;;;;;;7.32;2.60;;;;;;;9.42;100.00;99968.19;4898264;29;20028;-73
2023/01/08 05:51:03;;;;;;;5.00;2.78;;;;;;;9.35;100.00;99961.78;4914987;29;20383;-72
2023/01/08 05:53:31;;;;;;;5.05;2.83;;;;;;;9.40;100.00;99967.53;4898417;29;20227;-73
2023/01/08 05:56:04;;;;;;;6.93;3.22;;;;;;;9.26;100.00;99973.63;4897997;29;20016;-73
2023/01/08 05:58:30;;;;;;;6.78;3.22;;;;;;;9.22;100.00;99967.72;4898166;29;20032;-73
2023/01/08 06:01:07;;;;;;;10.02;2.90;;;;;;;9.36;100.00;99963.47;4896811;29;20182;-72
2023/01/08 06:03:33;;;;;;;4.05;2.88;;;;;;;9.19;100.00;99961.81;4900082;29;20531;-74
2023/01/08 06:06:00;;;;;;;3.90;2.95;;;;;;;9.20;100.00;99947.31;4914839;29;20106;-74
2023/01/08 06:08:27;;;;;;;5.22;3.45;;;;;;;9.21;100.00;99955.25;4898355;29;20040;-74
2023/01/08 06:10:53;;;;;;;4.95;3.10;;;;;;;9.32;100.00;99956.72;4897351;29;20024;-74
2023/01/08 06:13:18;;;;;;;5.60;2.90;;;;;;;9.28;100.00;99954.56;4918100;29;20075;-74
2023/01/08 06:15:44;;;;;;;4.43;3.17;;;;;;;9.42;100.00;99962.78;4925215;29;20156;-74
2023/01/08 06:18:09;;;;;;;5.15;3.20;;;;;;;9.38;100.00;99956.03;4909747;29;20476;-75
2023/01/08 06:20:35;;;;;;;6.32;3.22;;;;;;;9.32;100.00;99951.31;4914264;29;20103;-74
2023/01/08 06:23:00;;;;;;;4.97;3.58;;;;;;;9.15;100.00;99949.69;4913308;29;20073;-74
2023/01/08 06:25:25;;;;;;;6.13;3.40;;;;;;;9.18;100.00;99949.31;4929102;29;20032;-74
2023/01/08 06:27:52;;;;;;;4.82;3.25;;;;;;;9.23;100.00;99949.66;4914331;29;20039;-74
2023/01/08 06:30:17;;;;;;;4.15;3.22;;;;;;;9.29;100.00;99946.28;4913210;29;20020;-74
2023/01/08 06:32:43;;;;;;;5.22;3.00;;;;;;;9.32;100.00;99948.59;4913798;29;20047;-74
2023/01/08 06:35:08;;;;;;;7.03;3.95;;;;;;;9.34;100.00;99953.88;4912984;29;20060;-74
2023/01/08 06:37:33;;;;;;;7.03;3.45;;;;;;;9.37;100.00;99951.66;4928556;29;20479;-74
2023/01/08 06:39:59;;;;;;;6.63;3.13;;;;;;;9.31;100.00;99952.34;4929482;29;20114;-74
2023/01/08 06:42:24;;;;;;;3.47;2.72;;;;;;;9.33;100.00;99947.63;4913345;29;20032;-74
2023/01/08 06:44:49;;;;;;;5.05;3.10;;;;;;;9.31;100.00;99946.94;4923093;29;20032;-74
2023/01/08 06:47:15;;;;;;;7.22;3.53;;;;;;;9.15;100.00;99944.28;4927901;29;20083;-74
2023/01/08 06:49:40;;;;;;;9.93;3.50;;;;;;;9.00;100.00;99952.25;4928631;29;20020;-74
2023/01/08 06:52:05;;;;;;;6.43;3.53;;;;;;;9.10;100.00;99947.50;4912830;29;20038;-74
2023/01/08 06:54:31;;;;;;;9.73;4.13;;;;;;;8.92;100.00;99944.97;4913238;29;20032;-74
2023/01/08 06:56:56;;;;;;;7.75;3.20;;;;;;;8.98;100.00;99944.28;4928444;29;20047;-74
2023/01/08 06:59:21;;;;;;;7.15;4.07;;;;;;;8.78;100.00;99945.66;4913740;29;20032;-74
2023/01/08 07:01:47;;;;;;;6.60;3.45;;;;;;;8.88;100.00;99938.25;4913213;29;20032;-74
2023/01/08 07:04:12;;;;;;;6.95;3.90;;;;;;;8.83;100.00;99935.22;4912936;29;20024;-74
2023/01/08 07:06:38;;;;;;;8.52;3.22;;;;;;;8.75;100.00;99937.91;4913908;29;20027;-75
2023/01/08 07:09:03;;;;;;;4.47;3.20;;;;;;;8.87;100.00;99936.56;4912910;29;20162;-72
2023/01/08 07:11:28;;;;;;;8.43;3.55;;;;;;;8.91;100.00;99927.09;4912372;29;20436;-72
2023/01/08 07:13:54;;;;;;;6.63;3.70;;;;;;;8.80;100.00;99930.16;4917700;29;20023;-74
2023/01/08 07:16:20;;;;;;;9.93;4.93;;;;;;;8.77;100.00;99930.50;4918267;29;20031;-75
2023/01/08 07:18:45;;;;;;;6.75;3.88;;;;;;;8.81;100.00;99936.41;4936554;29;20075;-73
2023/01/08 07:21:10;;;;;;;5.45;3.58;;;;;;;8.76;100.00;99934.19;4919734;29;20107;-73
2023/01/08 07:23:37;;;;;;;8.02;3.95;;;;;;;8.80;100.00;99940.97;4919607;29;20028;-73
2023/01/08 07:26:04;;;;;;;5.20;3.58;;;;;;;8.78;100.00;99926.78;4936345;29;20034;-72
2023/01/08 07:28:30;;;;;;;7.13;3.83;;;;;;;8.79;100.00;99933.84;4919807;29;20034;-74
2023/01/08 07:30:55;;;;;;;7.60;4.10;;;;;;;8.78;100.00;99917.84;4919694;29;20024;-73
2023/01/08 07:33:21;;;;;;;5.82;3.58;;;;;;;8.85;100.00;99921.53;4919693;29;20020;-74
2023/01/08 07:35:53;;;;;;;6.65;3.25;;;;;;;8.85;100.00;99922.38;4919202;29;20426;-74
2023/01/08 07:38:19;;;;;;;4.85;3.70;;;;;;;8.83;100.00;99935.22;4919359;29;20051;-70
2023/01/08 07:40:45;;;;;;;8.85;4.05;;;;;;;8.89;100.00;99918.34;4919243;29;20031;-70
2023/01/08 07:43:11;;;;;;;7.65;3.80;;;;;;;8.86;100.00;99929.47;4945115;29;20061;-70
2023/01/08 07:45:37;;;;;;;5.55;3.58;;;;;;;8.79;100.00;99923.06;4922653;29;20467;-70
2023/01/08 07:48:03;;;;;;;6.20;3.42;;;;;;;8.75;100.00;99921.72;4919162;29;20043;-71
2023/01/08 07:50:29;;;;;;;6.05;4.05;;;;;;;8.69;100.00;99923.25;4929459;29;20024;-70
2023/01/08 07:53:00;;;;;;;6.35;4.15;;;;;;;8.69;100.00;99922.41;4935939;29;20399;-71
2023/01/08 07:55:27;;;;;;;7.20;3.42;;;;;;;8.80;100.00;99921.19;4935767;29;20028;-70
2023/01/08 07:57:53;;;;;;;8.75;4.18;;;;;;;8.89;100.00;99918.34;4918857;29;20023;-71
2023/01/08 08:00:18;;;;;;;8.48;4.13;;;;;;;8.90;100.00;99911.91;4919170;29;20087;-70
2023/01/08 08:02:44;;;;;;;7.25;3.65;;;;;;;8.82;100.00;99909.25;4918546;29;20040;-71
2023/01/08 08:05:09;;;;;;;5.43;3.67;;;;;;;8.81;100.00;99904.84;4935623;29;20024;-70
2023/01/08 08:07:35;;;;;;;5.85;4.03;;;;;;;8.82;100.00;99911.94;4935357;29;20023;-70
2023/01/08 08:10:01;;;;;;;7.32;3.72;;;;;;;8.82;100.00;99917.34;4918838;29;20475;-70
2023/01/08 08:12:26;;;;;;;6.15;4.10;;;;;;;8.87;100.00;99914.13;4918786;29;20530;-70
2023/01/08 08:14:51;;;;;;;9.48;4.30;;;;;;;8.78;100.00;99915.97;4920851;29;20043;-70
2023/01/08 08:17:17;;;;;;;9.40;4.80;;;;;;;8.82;100.00;99911.94;4934909;29;20038;-71
2023/01/08 08:19:44;;;;;;;7.68;4.07;;;;;;;8.95;100.00;99914.94;4935665;29;20062;-71
2023/01/08 08:22:10;;;;;;;8.60;3.88;;;;;;;8.94;100.00;99909.72;4917963;29;20118;-70
2023/01/08 08:24:35;;;;;;;5.18;3.58;;;;;;;9.02;100.00;99906.16;4934179;29;20111;-71
2023/01/08 08:27:00;;;;;;;7.95;3.63;;;;;;;8.90;100.00;99909.22;4918040;29;20438;-71
2023/01/08 08:29:25;;;;;;;7.47;3.42;;;;;;;8.95;100.00;99912.25;4935398;29;20051;-70
2023/01/08 08:31:51;;;;;;;8.85;4.18;;;;;;;8.88;100.00;99905.84;4918274;29;20038;-70
2023/01/08 08:34:16;;;;;;;9.23;3.85;;;;;;;8.82;100.00;99906.53;4918352;29;20122;-69
2023/01/08 08:36:42;;;;;;;6.25;3.83;;;;;;;8.84;100.00;99904.50;4933275;29;20038;-70
2023/01/08 08:39:07;;;;;;;5.85;4.05;;;;;;;8.86;100.00;99902.47;4935701;29;20039;-70
2023/01/08 08:41:32;;;;;;;8.38;3.90;;;;;;;8.79;100.00;99901.47;4934870;29;20038;-70
2023/01/08 08:43:58;;;;;;;7.00;3.85;;;;;;;8.78;100.00;99902.47;4936702;29;20036;-70
2023/01/08 08:46:24;;;;;;;7.10;3.90;;;;;;;8.74;100.00;99898.47;4923721;29;20032;-70
2023/01/08 08:48:49;;;;;;;7.13;4.47;;;;;;;8.84;100.00;99904.50;4934981;29;20110;-70
2023/01/08 08:51:15;;;;;;;7.20;3.90;;;;;;;8.85;100.00;99900.78;4933864;29;20126;-70
2023/01/08 08:53:40;;;;;;;5.90;3.58;;;;;;;8.92;100.00;99890.97;4930619;29;20055;-71
2023/01/08 08:56:06;;;;;;;9.93;3.85;;;;;;;8.92;100.00;99885.59;4948440;29;20023;-70
2023/01/08 08:58:31;;;;;;;6.47;3.55;;;;;;;8.90;100.00;99890.31;4934471;29;20506;-70
2023/01/08 09:01:03;;;;;;;6.82;4.40;;;;;;;8.91;100.00;99894.69;4917166;29;20051;-70
2023/01/08 09:03:28;;;;;;;;;;;;;;;8.94;100.00;99894.38;4934496;29;20033;-71
2023/01/08 09:05:54;;;;;;;10.23;4.50;;;;;;;9.01;100.00;99899.09;4948743;29;19917;-70
2023/01/08 09:08:19;;;;;;;7.57;3.78;;;;;;;8.92;100.00;99890.97;4917054;29;20074;-71
2023/01/08 09:10:45;;;;;;;8.32;3.88;;;;;;;9.03;100.00;99902.44;4932911;29;20027;-70
2023/01/08 09:13:10;;;;;;;9.68;4.53;;;;;;;9.05;100.00;99895.00;4937236;29;20027;-70
2023/01/08 09:15:37;;;;;;;9.52;4.32;;;;;;;8.98;100.00;99906.50;4929088;29;21228;-71
2023/01/08 09:18:02;;;;;;;6.70;3.80;;;;;;;9.03;100.00;99903.28;4925242;29;20054;-72
2023/01/08 09:20:33;;;;;;;8.82;3.88;;;;;;;9.03;100.00;99897.06;4903407;29;20398;-71
2023/01/08 09:23:00;;;;;;;6.60;4.03;;;;;;;8.91;100.00;99902.81;4899708;29;20032;-71
2023/01/08 09:25:26;;;;;;;7.65;4.45;;;;;;;8.95;100.00;99896.06;4925351;29;20020;-69
2023/01/08 09:27:59;;;;;;;6.00;3.58;;;;;;;8.89;100.00;99902.13;4919190;29;20024;-70
2023/01/08 09:30:24;;;;;;;9.25;4.03;;;;;;;9.09;100.00;99901.75;4902675;29;20119;-70
2023/01/08 09:32:49;;;;;;;6.97;3.90;;;;;;;9.08;100.00;99902.78;4902487;29;20111;-70
2023/01/08 09:35:15;;;;;;;7.13;3.67;;;;;;;9.07;100.00;99903.81;4904282;29;20035;-70
2023/01/08 09:37:40;;;;;;;6.88;3.88;;;;;;;9.15;100.00;99901.91;4914510;29;20017;-71
2023/01/08 09:40:06;;;;;;;6.32;3.70;;;;;;;9.16;100.00;99884.69;4913800;29;20099;-70
2023/01/08 09:42:32;;;;;;;8.27;3.90;;;;;;;9.25;100.00;99901.69;4894268;29;20404;-70
2023/01/08 09:45:00;;;;;;;10.27;3.95;;;;;;;9.39;100.00;99892.91;4903401;29;20032;-72
2023/01/08 09:47:30;;;;;;;6.07;3.53;;;;;;;9.23;100.00;99895.66;4894860;29;20031;-71
2023/01/08 09:50:01;;;;;;;6.25;3.78;;;;;;;9.31;100.00;99895.59;4897103;29;20036;-71
2023/01/08 09:52:29;;;;;;;5.28;3.67;;;;;;;9.36;100.00;99893.22;4896129;29;20035;-71
2023/01/08 09:54:54;;;;;;;7.88;3.90;;;;;;;9.29;100.00;99892.25;4911702;29;20036;-73
2023/01/08 09:57:21;;;;;;;10.48;4.82;;;;;;;9.57;100.00;99894.50;4914676;29;20078;-69
2023/01/08 09:59:48;;;;;;;7.30;3.97;;;;;;;9.46;100.00;99887.63;4913391;29;20040;-70
2023/01/08 10:02:15;;;;;;;5.85;3.55;;;;;;;9.39;100.00;99876.69;4896422;29;20036;-70
2023/01/08 10:04:42;;;;;;;6.38;3.72;;;;;;;9.22;100.00;99896.66;4912233;29;20515;-71
2023/01/08 10:07:29;;;;;;;8.20;4.15;;;;;;;9.35;100.00;99886.16;4895667;29;20024;-70
2023/01/08 10:09:55;;;;;;;4.35;3.17;;;;;;;9.45;100.00;99892.19;4896215;29;20039;-70
2023/01/08 10:12:26;;;;;;;8.32;3.85;;;;;;;9.44;100.00;99882.38;4911813;29;20395;-72
2023/01/08 10:14:55;;;;;;;7.40;3.33;;;;;;;9.49;100.00;99882.72;4895217;29;20032;-71
2023/01/08 10:17:40;;;;;;;8.38;3.70;;;;;;;9.60;100.00;99880.66;4916086;29;20110;-72
2023/01/08 10:20:14;;;;;;;7.80;3.53;;;;;;;9.54;100.00;99884.06;4923685;29;20067;-71
2023/01/08 10:22:40;;;;;;;6.60;3.05;;;;;;;9.47;100.00;99879.34;4922249;29;20028;-71
2023/01/08 10:25:08;;;;;;;4.53;3.38;;;;;;;9.42;100.00;99870.91;4917420;29;20028;-72
2023/01/08 10:27:57;;;;;;;5.93;3.75;;;;;;;9.46;100.00;99874.97;4949626;28;20028;-71
2023/01/08 10:30:36;;;;;;;6.28;4.32;;;;;;;9.64;100.00;99873.84;4936008;29;20032;-72
2023/01/08 10:33:09;;;;;;;7.72;3.58;;;;;;;9.43;100.00;99888.81;4912877;29;20059;-70
2023/01/08 10:35:38;;;;;;;6.38;3.45;;;;;;;9.32;100.00;99870.28;4923450;29;20483;-69
2023/01/08 10:38:03;;;;;;;10.30;3.35;;;;;;;9.37;100.00;99867.06;4908554;29;20031;-70
2023/01/08 10:40:47;;;;;;;9.57;3.80;;;;;;;9.36;100.00;99860.81;4925451;29;20040;-69
2023/01/08 10:43:27;;;;;;;10.95;3.80;;;;;;;9.50;100.00;99860.06;4916085;29;20038;-70
2023/01/08 10:46:05;;;;;;;6.32;3.10;;;;;;;9.41;100.00;99863.84;4916935;29;20055;-68
2023/01/08 10:48:35;;;;;;;6.65;3.08;;;;;;;9.39;100.00;99871.28;4955845;28;20023;-68
2023/01/08 10:51:06;;;;;;;8.90;3.95;;;;;;;9.41;100.00;99853.03;4917147;29;20043;-69
2023/01/08 10:53:32;;;;;;;8.73;2.93;;;;;;;9.19;100.00;99848.38;4919429;29;20024;-70
2023/01/08 10:55:59;;;;;;;8.35;3.10;;;;;;;9.26;100.00;99860.19;4914111;29;20040;-69
2023/01/08 10:58:29;;;;;;;9.40;3.03;;;;;;;9.14;100.00;99856.19;4917764;29;20119;-70
2023/01/08 11:01:07;;;;;;;8.73;2.97;;;;;;;9.23;100.00;99844.31;4921877;29;20027;-70
2023/01/08 11:03:32;;;;;;;8.38;2.90;;;;;;;9.21;100.00;99830.16;4926141;29;20147;-69
2023/01/08 11:05:58;;;;;;;9.70;3.53;;;;;;;9.19;100.00;99833.06;4914103;29;20123;-70
2023/01/08 11:08:23;;;;;;;9.38;3.17;;;;;;;9.23;100.00;99828.13;4908561;29;20397;-70
2023/01/08 11:10:55;;;;;;;7.38;3.10;;;;;;;9.32;100.00;99843.25;4916202;29;20066;-71
2023/01/08 11:13:21;;;;;;;4.65;2.83;;;;;;;9.32;100.00;99837.84;4908257;29;20027;-71
2023/01/08 11:16:00;;;;;;;9.75;3.25;;;;;;;9.29;100.00;99850.91;4916179;29;20032;-70
2023/01/08 11:18:27;;;;;;;6.95;3.53;;;;;;;9.28;100.00;99852.75;4905437;29;20086;-70
2023/01/08 11:21:04;;;;;;;8.82;4.03;;;;;;;9.10;100.00;99860.25;4904395;29;20491;-70
2023/01/08 11:23:30;;;;;;;6.93;3.75;;;;;;;9.22;100.00;99853.44;4911184;29;20648;-70
2023/01/08 11:26:14;;;;;;;11.13;3.72;;;;;;;9.28;100.00;99857.31;4902490;29;20016;-70
2023/01/08 11:29:11;;;;;;;5.03;3.67;;;;;;;9.30;100.00;99853.41;4896538;29;20032;-70
2023/01/08 11:31:54;;;;;;;15.93;5.85;;;;;;;9.30;100.00;99850.72;4902905;29;20028;-70
2023/01/08 11:34:41;;;;;;;5.47;3.92;;;;;;;9.56;100.00;99849.59;4905749;29;20031;-70
2023/01/08 11:37:20;;;;;;;6.70;4.45;;;;;;;9.65;100.00;99843.09;4921383;29;20030;-70
2023/01/08 11:39:45;;;;;;;4.80;3.72;;;;;;;9.64;100.00;99836.03;4921640;29;20023;-70